createdAt,value
2019-06-20T00:00:35.818Z,19.60
2019-06-20T00:03:03.098Z,19.60
2019-06-20T00:05:29.886Z,19.60
2019-06-20T00:07:57.163Z,19.50
2019-06-20T00:10:24.075Z,19.40
2019-06-20T00:13:00.372Z,19.30
2019-06-20T00:15:21.784Z,19.10
2019-06-20T00:17:48.572Z,19.20
2019-06-20T00:20:16.140Z,19.20
2019-06-20T00:22:43.508Z,19.20
2019-06-20T00:25:10.727Z,19.20
2019-06-20T00:27:37.678Z,19.20
2019-06-20T00:30:06.095Z,19.10
2019-06-20T00:32:32.912Z,19.00
2019-06-20T00:34:59.740Z,19.00
2019-06-20T00:37:26.836Z,19.10
2019-06-20T00:39:53.629Z,19.00
2019-06-20T00:42:20.736Z,19.00
2019-06-20T00:44:49.491Z,18.90
2019-06-20T00:47:16.377Z,18.80
2019-06-20T00:49:43.193Z,18.70
2019-06-20T00:52:10.219Z,18.70
2019-06-20T00:54:37.648Z,18.70
2019-06-20T00:57:04.452Z,18.60
2019-06-20T00:59:31.379Z,18.50
2019-06-20T01:01:58.316Z,18.50
2019-06-20T01:04:25.177Z,18.40
2019-06-20T01:06:52.303Z,18.40
2019-06-20T01:09:19.103Z,18.30
2019-06-20T01:11:45.902Z,18.30
2019-06-20T01:14:12.756Z,18.30
2019-06-20T01:16:39.859Z,18.30
2019-06-20T01:19:06.683Z,18.30
2019-06-20T01:21:33.732Z,18.20
2019-06-20T01:24:00.548Z,18.30
2019-06-20T01:26:27.402Z,18.30
2019-06-20T01:28:54.281Z,18.30
2019-06-20T01:31:21.168Z,18.40
2019-06-20T01:33:50.698Z,18.50
2019-06-20T01:36:17.656Z,18.50
2019-06-20T01:38:44.538Z,18.60
2019-06-20T01:41:11.330Z,18.50
2019-06-20T01:43:50.229Z,18.60
2019-06-20T01:46:07.000Z,18.60
2019-06-20T01:48:33.818Z,18.70
2019-06-20T01:51:01.073Z,18.70
2019-06-20T01:53:27.928Z,18.70
2019-06-20T01:55:54.745Z,18.60
2019-06-20T01:58:22.492Z,18.70
2019-06-20T02:00:52.137Z,18.70
2019-06-20T02:03:19.839Z,18.70
2019-06-20T02:05:46.815Z,18.70
2019-06-20T02:08:14.762Z,18.70
2019-06-20T02:10:41.575Z,18.70
2019-06-20T02:13:08.531Z,18.70
2019-06-20T02:15:35.332Z,18.70
2019-06-20T02:18:03.842Z,18.80
2019-06-20T02:20:51.476Z,18.80
2019-06-20T02:23:18.409Z,18.80
2019-06-20T02:25:45.674Z,18.80
2019-06-20T02:28:13.374Z,18.90
2019-06-20T02:30:40.178Z,18.90
2019-06-20T02:33:06.987Z,18.90
2019-06-20T02:35:34.048Z,18.90
2019-06-20T02:38:00.886Z,18.90
2019-06-20T02:40:27.766Z,18.90
2019-06-20T02:42:54.751Z,18.80
2019-06-20T02:45:21.850Z,18.70
2019-06-20T02:47:51.621Z,18.70
2019-06-20T02:50:18.704Z,18.70
2019-06-20T02:52:46.323Z,18.70
2019-06-20T02:55:14.016Z,18.60
2019-06-20T02:57:41.300Z,18.50
2019-06-20T03:00:09.663Z,18.50
2019-06-20T03:02:36.454Z,18.50
2019-06-20T03:05:09.355Z,18.50
2019-06-20T03:07:36.190Z,18.50
2019-06-20T03:10:05.821Z,18.40
2019-06-20T03:12:33.011Z,18.40
2019-06-20T03:14:59.813Z,18.40
2019-06-20T03:17:26.606Z,18.30
2019-06-20T03:19:53.487Z,18.40
2019-06-20T03:22:20.345Z,18.30
2019-06-20T03:24:50.720Z,18.30
2019-06-20T03:27:18.035Z,18.30
2019-06-20T03:29:45.080Z,18.30
2019-06-20T03:32:11.885Z,18.10
2019-06-20T03:34:38.761Z,18.20
2019-06-20T03:37:05.560Z,18.20
2019-06-20T03:39:32.364Z,18.20
2019-06-20T03:41:59.565Z,18.20
2019-06-20T03:44:26.387Z,18.10
2019-06-20T03:46:53.236Z,18.00
2019-06-20T03:49:20.079Z,17.90
2019-06-20T03:51:51.762Z,17.80
2019-06-20T03:54:19.234Z,17.80
2019-06-20T03:56:46.247Z,17.70
2019-06-20T03:59:13.245Z,17.70
2019-06-20T04:01:40.197Z,17.70
2019-06-20T04:04:07.123Z,17.70
2019-06-20T04:06:34.301Z,17.70
2019-06-20T04:09:01.136Z,17.70
2019-06-20T04:11:28.210Z,17.60
2019-06-20T04:13:55.222Z,17.60
2019-06-20T04:16:22.040Z,17.60
2019-06-20T04:18:50.430Z,17.60
2019-06-20T04:21:17.243Z,17.60
2019-06-20T04:23:44.403Z,17.60
2019-06-20T04:26:11.608Z,17.60
2019-06-20T04:28:38.412Z,17.60
2019-06-20T04:31:05.232Z,17.60
2019-06-20T04:33:32.047Z,17.60
2019-06-20T04:35:59.000Z,17.60
2019-06-20T04:38:25.990Z,17.60
2019-06-20T04:40:53.053Z,17.60
2019-06-20T04:43:19.918Z,17.60
2019-06-20T04:45:54.781Z,17.30
2019-06-20T04:48:21.558Z,17.50
2019-06-20T04:50:50.013Z,17.50
2019-06-20T04:53:17.398Z,17.50
2019-06-20T04:55:44.686Z,17.50
2019-06-20T04:58:11.612Z,17.50
2019-06-20T05:00:38.448Z,17.40
2019-06-20T05:03:05.293Z,17.30
2019-06-20T05:05:32.094Z,17.20
2019-06-20T05:07:59.176Z,17.20
2019-06-20T05:10:26.091Z,17.10
2019-06-20T05:12:55.867Z,17.10
2019-06-20T05:15:21.830Z,17.10
2019-06-20T05:17:49.768Z,17.00
2019-06-20T05:20:16.819Z,17.10
2019-06-20T05:22:43.939Z,17.10
2019-06-20T05:25:11.919Z,17.10
2019-06-20T05:27:38.736Z,17.10
2019-06-20T05:30:09.586Z,17.10
2019-06-20T05:32:36.386Z,17.10
2019-06-20T05:35:04.340Z,17.10
2019-06-20T05:37:31.379Z,17.10
2019-06-20T05:39:58.234Z,17.20
2019-06-20T05:42:26.107Z,17.10
2019-06-20T05:44:53.292Z,17.30
2019-06-20T05:47:20.551Z,17.30
2019-06-20T05:49:50.456Z,17.40
2019-06-20T05:52:17.551Z,17.40
2019-06-20T05:54:45.328Z,17.60
2019-06-20T05:57:12.523Z,17.70
2019-06-20T05:59:39.487Z,17.60
2019-06-20T06:02:06.699Z,17.60
2019-06-20T06:04:33.719Z,17.20
2019-06-20T06:07:00.589Z,17.60
2019-06-20T06:09:27.381Z,17.50
2019-06-20T06:11:54.194Z,17.60
2019-06-20T06:14:21.307Z,17.60
2019-06-20T06:16:49.582Z,17.20
2019-06-20T06:19:16.496Z,17.60
2019-06-20T06:21:43.352Z,17.70
2019-06-20T06:24:10.302Z,17.70
2019-06-20T06:26:37.238Z,17.80
2019-06-20T06:29:04.169Z,17.90
2019-06-20T06:31:30.988Z,17.90
2019-06-20T06:33:57.782Z,18.00
2019-06-20T06:36:25.064Z,18.10
2019-06-20T06:38:51.910Z,18.20
2019-06-20T06:41:18.721Z,18.30
2019-06-20T06:43:48.715Z,18.30
2019-06-20T06:46:15.778Z,18.40
2019-06-20T06:48:42.617Z,18.50
2019-06-20T06:51:09.616Z,18.70
2019-06-20T06:53:36.432Z,19.60
2019-06-20T06:56:03.948Z,18.70
2019-06-20T06:58:30.833Z,18.70
2019-06-20T07:00:57.644Z,18.80
2019-06-20T07:03:24.478Z,18.80
2019-06-20T07:05:51.628Z,18.90
2019-06-20T07:08:18.442Z,19.00
2019-06-20T07:10:48.179Z,19.00
2019-06-20T07:13:15.397Z,19.10
2019-06-20T07:15:42.898Z,19.20
2019-06-20T07:18:09.745Z,19.20
2019-06-20T07:20:36.917Z,19.30
2019-06-20T07:23:03.689Z,19.40
2019-06-20T07:25:30.535Z,19.50
2019-06-20T07:27:57.645Z,19.60
2019-06-20T07:30:25.149Z,19.70
2019-06-20T07:32:51.940Z,19.70
2019-06-20T07:35:18.799Z,19.70
2019-06-20T07:37:48.974Z,19.80
2019-06-20T07:40:16.470Z,19.80
2019-06-20T07:42:43.446Z,19.90
2019-06-20T07:45:12.754Z,19.90
2019-06-20T07:47:39.664Z,20.00
2019-06-20T07:50:12.323Z,20.00
2019-06-20T07:52:39.145Z,20.00
2019-06-20T07:55:07.250Z,20.10
2019-06-20T07:57:34.171Z,20.10
2019-06-20T08:00:01.314Z,20.10
2019-06-20T08:02:28.121Z,20.20
2019-06-20T08:04:54.973Z,20.20
2019-06-20T08:07:22.086Z,20.30
2019-06-20T08:09:48.901Z,20.40
2019-06-20T08:12:15.765Z,20.40
2019-06-20T08:14:42.625Z,20.40
2019-06-20T08:17:09.439Z,20.50
2019-06-20T08:19:36.297Z,20.60
2019-06-20T08:22:03.566Z,20.70
2019-06-20T08:24:30.388Z,20.80
2019-06-20T08:26:58.660Z,20.80
2019-06-20T08:29:26.273Z,20.90
2019-06-20T08:31:53.082Z,21.00
2019-06-20T08:34:20.114Z,21.10
2019-06-20T08:36:48.299Z,21.20
2019-06-20T08:39:15.124Z,21.30
2019-06-20T08:41:42.275Z,21.40
2019-06-20T08:44:09.128Z,21.50
2019-06-20T08:46:35.985Z,21.50
2019-06-20T08:49:03.810Z,21.50
2019-06-20T08:51:30.905Z,21.60
2019-06-20T08:53:59.217Z,21.60
2019-06-20T08:56:26.190Z,21.70
2019-06-20T08:58:53.971Z,21.70
2019-06-20T09:01:21.368Z,21.80
2019-06-20T09:03:48.285Z,21.80
2019-06-20T09:06:15.097Z,21.80
2019-06-20T09:08:42.204Z,22.00
2019-06-20T09:11:09.038Z,22.10
2019-06-20T09:13:35.887Z,22.20
2019-06-20T09:16:03.322Z,22.30
2019-06-20T09:18:30.410Z,22.40
2019-06-20T09:20:58.092Z,22.50
2019-06-20T09:23:25.052Z,22.60
2019-06-20T09:25:52.353Z,22.70
2019-06-20T09:28:19.228Z,22.70
2019-06-20T09:30:47.870Z,22.80
2019-06-20T09:33:14.879Z,22.90
2019-06-20T09:35:41.708Z,23.00
2019-06-20T09:38:08.521Z,23.00
2019-06-20T09:40:35.978Z,23.00
2019-06-20T09:43:03.829Z,23.00
2019-06-20T09:45:31.422Z,23.10
2019-06-20T09:47:58.800Z,23.10
2019-06-20T09:50:26.374Z,23.10
2019-06-20T09:52:54.756Z,23.10
2019-06-20T09:55:22.161Z,23.20
2019-06-20T09:57:50.312Z,23.20
2019-06-20T10:00:22.790Z,23.30
2019-06-20T10:02:50.676Z,23.20
2019-06-20T10:05:20.818Z,23.30
2019-06-20T10:07:48.668Z,23.40
2019-06-20T10:10:17.784Z,23.40
2019-06-20T10:12:47.947Z,23.40
2019-06-20T10:15:30.217Z,23.40
2019-06-20T10:17:57.454Z,23.60
2019-06-20T10:20:25.671Z,23.60
2019-06-20T10:22:53.148Z,23.60
2019-06-20T10:25:20.372Z,23.70
2019-06-20T10:27:48.292Z,23.80
2019-06-20T10:30:19.562Z,23.80
2019-06-20T10:32:48.604Z,23.90
2019-06-20T10:35:16.213Z,23.90
2019-06-20T10:37:47.197Z,23.80
2019-06-20T10:40:17.393Z,23.90
2019-06-20T10:42:48.122Z,23.90
2019-06-20T10:45:18.191Z,23.90
2019-06-20T10:47:48.875Z,24.10
2019-06-20T10:50:16.811Z,24.30
2019-06-20T10:52:47.893Z,24.40
2019-06-20T10:55:15.750Z,24.50
2019-06-20T10:57:46.771Z,24.60
2019-06-20T11:00:29.756Z,24.60
2019-06-20T11:02:47.149Z,24.70
2019-06-20T11:05:14.904Z,24.60
2019-06-20T11:07:42.507Z,24.70
2019-06-20T11:10:15.208Z,24.50
2019-06-20T11:12:49.193Z,24.50
2019-06-20T11:15:13.427Z,24.60
2019-06-20T11:17:40.404Z,24.60
2019-06-20T11:20:11.378Z,24.70
2019-06-20T11:22:39.875Z,24.70
2019-06-20T11:25:10.195Z,24.80
2019-06-20T11:27:38.505Z,24.90
2019-06-20T11:30:11.063Z,25.00
2019-06-20T11:32:39.364Z,25.00
2019-06-20T11:35:06.945Z,25.00
2019-06-20T11:37:35.045Z,25.00
2019-06-20T11:40:06.695Z,25.10
2019-06-20T11:42:34.693Z,25.20
2019-06-20T11:45:06.415Z,25.40
2019-06-20T11:47:34.991Z,25.20
2019-06-20T11:50:06.435Z,25.20
2019-06-20T11:52:38.099Z,25.10
2019-06-20T11:55:05.719Z,25.10
2019-06-20T11:57:32.722Z,24.70
2019-06-20T12:00:05.182Z,24.80
2019-06-20T12:02:31.995Z,24.80
2019-06-20T12:04:58.853Z,24.70
2019-06-20T12:07:25.683Z,24.60
2019-06-20T12:09:52.748Z,24.50
2019-06-20T12:12:19.684Z,24.40
2019-06-20T12:14:46.863Z,23.90
2019-06-20T12:17:13.728Z,24.20
2019-06-20T12:19:40.938Z,24.20
2019-06-20T12:22:07.854Z,24.30
2019-06-20T12:24:35.055Z,24.30
2019-06-20T12:27:02.124Z,24.40
2019-06-20T12:29:29.007Z,24.60
2019-06-20T12:31:56.325Z,24.80
2019-06-20T12:34:23.885Z,24.90
2019-06-20T12:36:50.830Z,24.80
2019-06-20T12:39:17.634Z,24.60
2019-06-20T12:41:47.537Z,24.90
2019-06-20T12:44:14.843Z,24.90
2019-06-20T12:46:44.849Z,24.90
2019-06-20T12:49:11.964Z,24.80
2019-06-20T12:51:40.397Z,24.70
2019-06-20T12:54:07.743Z,24.70
2019-06-20T12:56:34.626Z,24.70
2019-06-20T12:59:01.715Z,24.80
2019-06-20T13:01:35.820Z,25.00
2019-06-20T13:03:57.220Z,25.10
2019-06-20T13:06:24.090Z,25.30
2019-06-20T13:08:51.291Z,25.30
2019-06-20T13:11:18.099Z,25.20
2019-06-20T13:13:46.584Z,25.20
2019-06-20T13:16:13.649Z,25.10
2019-06-20T13:18:41.382Z,25.00
2019-06-20T13:21:09.643Z,25.00
2019-06-20T13:23:37.046Z,24.70
2019-06-20T13:26:03.855Z,24.70
2019-06-20T13:28:30.901Z,24.70
2019-06-20T13:30:57.793Z,24.80
2019-06-20T13:33:24.751Z,25.10
2019-06-20T13:35:51.581Z,25.30
2019-06-20T13:38:18.486Z,25.30
2019-06-20T13:40:45.474Z,25.70
2019-06-20T13:43:12.736Z,26.00
2019-06-20T13:45:41.152Z,26.20
2019-06-20T13:48:08.492Z,26.50
2019-06-20T13:50:35.435Z,26.70
2019-06-20T13:53:02.239Z,26.90
2019-06-20T13:55:29.274Z,27.10
2019-06-20T13:57:56.323Z,27.60
2019-06-20T14:00:24.591Z,27.80
2019-06-20T14:02:51.870Z,28.20
2019-06-20T14:05:19.674Z,28.20
2019-06-20T14:07:48.458Z,28.30
2019-06-20T14:10:16.106Z,28.30
2019-06-20T14:12:46.729Z,28.40
2019-06-20T14:15:15.908Z,28.40
2019-06-20T14:17:47.191Z,28.50
2019-06-20T14:20:14.199Z,27.90
2019-06-20T14:22:45.011Z,27.20
2019-06-20T14:25:12.795Z,26.90
2019-06-20T14:27:39.632Z,27.10
2019-06-20T14:30:08.185Z,27.20
2019-06-20T14:32:34.989Z,27.00
2019-06-20T14:35:03.349Z,26.90
2019-06-20T14:37:30.189Z,26.80
2019-06-20T14:39:57.143Z,27.00
2019-06-20T14:42:24.121Z,27.40
2019-06-20T14:44:52.440Z,27.90
2019-06-20T14:47:19.667Z,28.20
2019-06-20T14:49:46.608Z,28.30
2019-06-20T14:52:13.730Z,28.00
2019-06-20T14:54:45.874Z,27.80
2019-06-20T14:57:13.339Z,27.60
2019-06-20T14:59:45.051Z,28.00
2019-06-20T15:02:13.008Z,27.80
2019-06-20T15:04:44.401Z,28.20
2019-06-20T15:07:11.707Z,28.50
2019-06-20T15:09:39.244Z,28.60
2019-06-20T15:12:06.716Z,28.90
2019-06-20T15:14:33.821Z,29.50
2019-06-20T15:17:00.643Z,29.90
2019-06-20T15:19:27.478Z,29.40
2019-06-20T15:21:54.587Z,29.10
2019-06-20T15:24:21.740Z,29.30
2019-06-20T15:26:49.411Z,29.90
2019-06-20T15:29:17.293Z,30.50
2019-06-20T15:31:45.883Z,31.00
2019-06-20T15:34:13.278Z,31.20
2019-06-20T15:36:43.373Z,29.90
2019-06-20T15:39:10.211Z,29.40
2019-06-20T15:41:37.313Z,28.60
2019-06-20T15:44:04.125Z,28.80
2019-06-20T15:46:30.974Z,29.50
2019-06-20T15:48:59.887Z,29.80
2019-06-20T15:51:26.782Z,30.00
2019-06-20T15:53:53.593Z,30.30
2019-06-20T15:56:20.391Z,30.50
2019-06-20T15:58:47.220Z,30.60
2019-06-20T16:01:14.003Z,30.70
2019-06-20T16:03:44.058Z,30.70
2019-06-20T16:06:10.861Z,30.40
2019-06-20T16:08:37.701Z,29.30
2019-06-20T16:11:04.497Z,29.20
2019-06-20T16:13:31.563Z,29.10
2019-06-20T16:15:58.453Z,28.40
2019-06-20T16:18:25.270Z,28.00
2019-06-20T16:20:52.378Z,27.90
2019-06-20T16:23:19.169Z,27.60
2019-06-20T16:25:46.023Z,27.20
2019-06-20T16:28:13.173Z,27.00
2019-06-20T16:30:43.042Z,26.80
2019-06-20T16:33:24.085Z,26.80
2019-06-20T16:35:38.764Z,27.20
2019-06-20T16:38:05.717Z,27.30
2019-06-20T16:40:45.654Z,26.70
2019-06-20T16:43:12.483Z,26.70
2019-06-20T16:45:42.377Z,26.80
2019-06-20T16:48:09.727Z,26.80
2019-06-20T16:50:37.125Z,26.70
2019-06-20T16:53:04.348Z,26.50
2019-06-20T16:55:31.395Z,26.30
2019-06-20T16:57:58.188Z,26.10
2019-06-20T17:00:24.966Z,26.00
2019-06-20T17:02:51.954Z,26.00
2019-06-20T17:05:19.426Z,26.10
2019-06-20T17:07:46.360Z,26.10
2019-06-20T17:10:14.091Z,26.00
2019-06-20T17:12:43.514Z,25.90
2019-06-20T17:15:10.693Z,25.90
2019-06-20T17:17:37.987Z,25.40
2019-06-20T17:20:07.313Z,25.70
2019-06-20T17:22:34.348Z,25.70
2019-06-20T17:25:01.200Z,25.80
2019-06-20T17:27:28.564Z,25.70
2019-06-20T17:29:55.364Z,25.60
2019-06-20T17:32:22.531Z,25.50
2019-06-20T17:34:49.342Z,25.40
2019-06-20T17:37:16.137Z,25.50
2019-06-20T17:39:43.720Z,25.50
2019-06-20T17:42:10.513Z,25.50
2019-06-20T17:44:37.655Z,25.50
2019-06-20T17:47:04.568Z,25.50
2019-06-20T17:49:31.388Z,25.30
2019-06-20T17:51:58.544Z,25.40
2019-06-20T17:54:25.418Z,25.40
2019-06-20T17:56:52.299Z,25.30
2019-06-20T17:59:22.569Z,25.40
2019-06-20T18:01:47.872Z,25.20
2019-06-20T18:04:14.685Z,25.20
2019-06-20T18:06:42.642Z,25.10
2019-06-20T18:09:09.472Z,25.20
2019-06-20T18:11:36.283Z,25.10
2019-06-20T18:14:03.859Z,25.10
2019-06-20T18:16:30.780Z,25.10
2019-06-20T18:18:57.966Z,24.70
2019-06-20T18:21:24.777Z,24.70
2019-06-20T18:23:51.883Z,24.70
2019-06-20T18:26:19.011Z,24.50
2019-06-20T18:28:45.984Z,24.30
2019-06-20T18:31:13.320Z,24.30
2019-06-20T18:33:42.486Z,24.50
2019-06-20T18:36:09.288Z,24.60
2019-06-20T18:38:36.167Z,24.40
2019-06-20T18:41:03.210Z,24.10
2019-06-20T18:43:29.900Z,24.30
2019-06-20T18:45:57.110Z,24.30
2019-06-20T18:48:24.104Z,24.40
2019-06-20T18:50:50.913Z,24.20
2019-06-20T18:53:17.848Z,24.20
2019-06-20T18:55:44.660Z,24.30
2019-06-20T18:58:11.477Z,24.30
2019-06-20T19:00:41.318Z,24.40
2019-06-20T19:03:08.197Z,24.20
2019-06-20T19:05:35.009Z,24.20
2019-06-20T19:08:01.988Z,24.20
2019-06-20T19:10:29.178Z,24.10
2019-06-20T19:12:55.982Z,24.10
2019-06-20T19:15:24.327Z,24.10
2019-06-20T19:17:51.416Z,23.90
2019-06-20T19:20:19.519Z,23.80
2019-06-20T19:22:46.618Z,23.80
2019-06-20T19:25:15.978Z,23.80
2019-06-20T19:27:46.568Z,23.80
2019-06-20T19:30:15.570Z,23.70
2019-06-20T19:32:42.377Z,23.60
2019-06-20T19:35:12.279Z,23.50
2019-06-20T19:37:42.381Z,23.50
2019-06-20T19:40:11.973Z,23.60
2019-06-20T19:42:41.956Z,23.70
2019-06-20T19:45:10.947Z,23.50
2019-06-20T19:47:40.971Z,23.50
2019-06-20T19:50:10.226Z,23.30
2019-06-20T19:52:40.915Z,23.30
2019-06-20T19:55:09.101Z,23.10
2019-06-20T19:57:36.175Z,23.10
2019-06-20T20:00:07.599Z,23.30
2019-06-20T20:02:34.413Z,23.20
2019-06-20T20:05:14.858Z,23.30
2019-06-20T20:07:30.268Z,23.30
2019-06-20T20:09:57.065Z,23.30
2019-06-20T20:12:24.251Z,23.00
2019-06-20T20:14:51.391Z,22.80
2019-06-20T20:17:18.225Z,22.70
2019-06-20T20:19:45.226Z,22.50
2019-06-20T20:22:12.237Z,22.40
2019-06-20T20:24:41.681Z,22.50
2019-06-20T20:27:08.611Z,22.50
2019-06-20T20:29:36.128Z,22.50
2019-06-20T20:32:03.310Z,22.50
2019-06-20T20:34:30.208Z,22.40
2019-06-20T20:36:57.313Z,22.30
2019-06-20T20:39:24.159Z,22.30
2019-06-20T20:41:50.949Z,22.40
2019-06-20T20:44:17.892Z,22.30
2019-06-20T20:46:44.742Z,22.20
2019-06-20T20:49:11.552Z,22.00
2019-06-20T20:51:41.070Z,22.10
2019-06-20T20:54:07.892Z,22.00
2019-06-20T20:56:35.098Z,22.10
2019-06-20T20:59:02.170Z,22.00
2019-06-20T21:01:35.727Z,22.00
2019-06-20T21:04:03.305Z,22.00
2019-06-20T21:06:30.587Z,22.00
2019-06-20T21:08:57.395Z,22.00
2019-06-20T21:11:24.292Z,22.00
2019-06-20T21:13:51.074Z,21.80
2019-06-20T21:16:17.899Z,21.80
2019-06-20T21:18:45.075Z,21.80
2019-06-20T21:21:11.995Z,21.70
2019-06-20T21:23:41.301Z,21.40
2019-06-20T21:26:08.144Z,21.50
2019-06-20T21:28:35.035Z,21.50
2019-06-20T21:31:01.940Z,21.60
2019-06-20T21:33:28.943Z,21.70
2019-06-20T21:36:07.908Z,21.70
2019-06-20T21:38:24.793Z,21.70
2019-06-20T21:40:51.717Z,21.60
2019-06-20T21:43:18.511Z,21.70
2019-06-20T21:45:45.652Z,21.70
2019-06-20T21:48:12.510Z,21.70
2019-06-20T21:50:40.871Z,21.80
2019-06-20T21:53:07.681Z,21.70
2019-06-20T21:55:34.909Z,21.70
2019-06-20T21:58:01.757Z,21.70
2019-06-20T22:00:46.812Z,21.30
2019-06-20T22:03:13.907Z,21.60
2019-06-20T22:05:41.073Z,21.70
2019-06-20T22:08:08.999Z,21.60
2019-06-20T22:10:35.954Z,21.70
2019-06-20T22:13:03.178Z,21.70
2019-06-20T22:15:30.056Z,21.60
2019-06-20T22:17:57.283Z,21.60
2019-06-20T22:20:24.953Z,21.50
2019-06-20T22:22:51.962Z,21.50
2019-06-20T22:25:19.474Z,21.50
2019-06-20T22:27:46.291Z,21.60
2019-06-20T22:30:16.059Z,21.50
2019-06-20T22:32:42.876Z,21.40
2019-06-20T22:35:10.396Z,21.50
2019-06-20T22:37:40.121Z,21.50
2019-06-20T22:40:08.807Z,21.40
2019-06-20T22:42:35.914Z,21.40
2019-06-20T22:45:08.132Z,21.50
2019-06-20T22:47:34.950Z,21.50
2019-06-20T22:50:06.416Z,21.50
2019-06-20T22:52:33.251Z,21.40
2019-06-20T22:55:00.040Z,21.40
2019-06-20T22:57:27.197Z,21.40
2019-06-20T22:59:54.027Z,21.30
2019-06-20T23:02:20.912Z,21.30
2019-06-20T23:04:47.721Z,21.30
2019-06-20T23:07:14.529Z,21.30
2019-06-20T23:09:41.403Z,21.20
2019-06-20T23:12:08.196Z,21.20
2019-06-20T23:14:35.594Z,21.20
2019-06-20T23:17:03.324Z,21.20
2019-06-20T23:19:30.560Z,21.20
2019-06-20T23:21:57.369Z,21.20
2019-06-20T23:24:24.694Z,21.20
2019-06-20T23:26:51.835Z,21.20
2019-06-20T23:29:22.173Z,21.10
2019-06-20T23:31:50.619Z,21.10
2019-06-20T23:34:18.032Z,21.00
2019-06-20T23:36:44.853Z,21.00
2019-06-20T23:39:11.873Z,20.90
2019-06-20T23:41:39.646Z,20.80
2019-06-20T23:44:06.544Z,20.60
2019-06-20T23:46:33.408Z,20.60
2019-06-20T23:49:00.499Z,20.50
2019-06-20T23:51:29.253Z,20.60
2019-06-20T23:53:56.116Z,20.60
2019-06-20T23:56:22.916Z,20.50
2019-06-20T23:58:49.833Z,20.50
